Time;durP1;ratioP1;P1;durP2;ratioP2;P2;SDS_P1;SDS_P2;PMS_P1;PMS_P2;Temp;Humidity;BMP_temperature;BMP_pressure;BME280_temperature;BME280_humidity;BME280_pressure;Samples;Min_cycle;Max_cycle;Signal;HPM_P1;HPM_P2
2022/01/27 00:04:40;;;;;;;18.48;12.63;;;7.80;78.50;;;;;;4986244;28;20037;-80
2022/01/27 00:07:06;;;;;;;19.02;13.25;;;7.80;78.50;;;;;;4993206;28;20626;-80
2022/01/27 00:09:46;;;;;;;18.73;11.80;;;7.80;78.50;;;;;;4981680;28;20037;-79
2022/01/27 00:12:16;;;;;;;16.80;12.23;;;7.80;78.50;;;;;;4989494;28;20463;-80
2022/01/27 00:14:46;;;;;;;17.33;12.20;;;7.80;78.50;;;;;;5000765;28;20091;-80
2022/01/27 00:17:15;;;;;;;18.40;12.52;;;7.80;78.50;;;;;;4982163;28;20038;-80
2022/01/27 00:19:42;;;;;;;19.13;13.75;;;7.80;78.50;;;;;;4988588;28;20044;-79
2022/01/27 00:22:08;;;;;;;17.40;11.82;;;7.80;78.40;;;;;;5007410;28;20037;-80
2022/01/27 00:24:34;;;;;;;20.00;13.68;;;7.80;78.40;;;;;;4990481;28;20041;-81
2022/01/27 00:27:00;;;;;;;17.02;12.13;;;7.80;78.40;;;;;;5015922;28;20111;-80
2022/01/27 00:29:26;;;;;;;18.23;12.82;;;7.80;78.40;;;;;;4996647;28;20034;-80
2022/01/27 00:31:52;;;;;;;19.25;13.00;;;7.80;78.40;;;;;;4988568;28;20030;-81
2022/01/27 00:34:17;;;;;;;17.90;12.55;;;7.80;78.30;;;;;;4983124;28;20044;-80
2022/01/27 00:36:43;;;;;;;17.48;12.85;;;7.90;78.40;;;;;;5016019;28;20034;-80
2022/01/27 00:39:09;;;;;;;17.15;12.50;;;7.80;78.30;;;;;;4996917;28;20105;-80
2022/01/27 00:41:35;;;;;;;17.73;12.45;;;7.80;78.40;;;;;;4969232;28;20538;-81
2022/01/27 00:44:02;;;;;;;18.77;12.65;;;7.90;78.40;;;;;;5000877;28;20466;-81
2022/01/27 00:46:31;;;;;;;17.95;12.48;;;7.80;78.30;;;;;;4996436;28;20038;-80
2022/01/27 00:48:57;;;;;;;16.80;11.63;;;7.80;78.30;;;;;;4996156;28;20033;-80
2022/01/27 00:51:27;;;;;;;18.48;12.43;;;7.90;78.40;;;;;;5005343;28;20038;-79
2022/01/27 00:54:03;;;;;;;17.10;11.77;;;7.90;78.40;;;;;;4997392;28;20037;-79
2022/01/27 00:56:47;;;;;;;19.30;12.43;;;7.90;78.40;;;;;;4995155;28;20032;-79
2022/01/27 00:59:25;;;;;;;17.77;11.68;;;7.90;78.40;;;;;;5003790;28;20030;-80
2022/01/27 01:04:49;;;;;;;16.50;11.38;;;7.90;78.40;;;;;;4981617;28;20088;-81
2022/01/27 01:07:16;;;;;;;14.48;10.38;;;7.80;78.30;;;;;;4992402;28;20096;-81
2022/01/27 01:15:23;;;;;;;16.90;11.38;;;7.90;78.40;;;;;;5012786;28;20050;-80
2022/01/27 01:18:06;;;;;;;16.27;11.05;;;7.90;78.40;;;;;;4992307;28;20057;-81
2022/01/27 01:31:27;;;;;;;14.40;10.18;;;7.90;78.40;;;;;;5010459;28;20029;-81
2022/01/27 01:34:00;;;;;;;17.88;11.27;;;7.90;78.40;;;;;;4984619;28;20961;-80
2022/01/27 01:36:35;;;;;;;15.07;10.27;;;7.80;78.30;;;;;;5004440;28;20518;-80
2022/01/27 01:39:02;;;;;;;14.13;10.35;;;7.80;78.30;;;;;;4996608;28;20116;-80
2022/01/27 01:41:27;;;;;;;15.20;11.10;;;7.90;78.40;;;;;;4988937;28;20030;-81
2022/01/27 01:43:53;;;;;;;16.08;11.20;;;7.90;78.40;;;;;;4975840;28;20033;-80
2022/01/27 01:46:19;;;;;;;16.42;11.13;;;7.90;78.40;;;;;;4973669;28;20080;-80
2022/01/27 01:48:45;;;;;;;15.85;10.55;;;7.90;78.40;;;;;;5014506;28;20116;-80
2022/01/27 01:51:11;;;;;;;16.02;11.02;;;7.90;78.40;;;;;;4996892;28;20030;-80
2022/01/27 01:53:37;;;;;;;15.13;11.45;;;7.90;79.00;;;;;;4995452;28;20407;-81
2022/01/27 01:56:05;;;;;;;15.00;11.07;;;7.90;78.40;;;;;;5007096;28;20026;-80
2022/01/27 01:58:30;;;;;;;16.83;11.65;;;7.90;78.40;;;;;;4987136;28;20030;-82
2022/01/27 02:00:56;;;;;;;16.83;12.07;;;7.90;78.40;;;;;;4982767;28;20041;-80
2022/01/27 02:03:22;;;;;;;16.15;11.63;;;7.90;78.30;;;;;;4995230;28;20034;-81
2022/01/27 02:05:54;;;;;;;15.45;11.20;;;7.90;78.30;;;;;;4979358;28;20118;-81
2022/01/27 02:19:23;;;;;;;17.05;11.63;;;7.90;78.30;;;;;;5012007;28;20485;-80
2022/01/27 02:21:55;;;;;;;14.77;10.57;;;7.90;78.30;;;;;;4978483;28;20038;-80
2022/01/27 02:24:24;;;;;;;16.55;11.07;;;7.90;78.40;;;;;;4995974;28;20425;-81
2022/01/27 02:26:51;;;;;;;16.08;11.10;;;7.90;78.40;;;;;;4994382;28;20061;-81
2022/01/27 02:29:18;;;;;;;15.05;10.88;;;7.90;78.30;;;;;;4990606;28;20033;-82
2022/01/27 02:31:46;;;;;;;14.18;10.40;;;7.90;78.30;;;;;;4994064;28;20045;-81
2022/01/27 02:34:13;;;;;;;15.18;10.90;;;7.90;78.30;;;;;;4984749;28;20124;-81
2022/01/27 02:36:39;;;;;;;17.20;11.25;;;7.90;78.30;;;;;;4994250;28;20474;-83
2022/01/27 02:39:07;;;;;;;17.48;11.75;;;7.90;78.30;;;;;;4984007;28;20125;-80
2022/01/27 02:41:42;;;;;;;15.15;10.68;;;7.90;78.30;;;;;;4989236;28;20483;-80
2022/01/27 02:44:08;;;;;;;15.35;10.77;;;7.90;78.30;;;;;;4996900;28;20100;-81
2022/01/27 02:46:45;;;;;;;14.18;10.70;;;7.90;78.20;;;;;;4994565;28;20045;-81
2022/01/27 02:49:11;;;;;;;15.70;11.88;;;7.90;78.30;;;;;;5014393;28;20038;-81
2022/01/27 02:51:37;;;;;;;15.75;10.80;;;7.90;78.20;;;;;;5011021;28;20497;-81
2022/01/27 02:54:04;;;;;;;15.90;10.95;;;7.90;78.20;;;;;;5002568;28;20029;-80
2022/01/27 02:56:31;;;;;;;15.32;11.02;;;7.90;78.30;;;;;;5019412;28;21766;-81
2022/01/27 02:58:57;;;;;;;16.73;11.90;;;7.90;78.30;;;;;;5017555;28;20038;-81
2022/01/27 03:01:23;;;;;;;15.68;10.85;;;7.90;78.30;;;;;;4996122;28;20437;-82
2022/01/27 03:03:48;;;;;;;15.68;11.13;;;7.90;78.20;;;;;;5013110;28;20042;-80
2022/01/27 03:06:14;;;;;;;15.82;11.20;;;7.90;78.20;;;;;;4973720;28;20048;-80
2022/01/27 03:08:40;;;;;;;15.90;11.35;;;7.90;78.20;;;;;;5014639;28;20029;-81
2022/01/27 03:11:12;;;;;;;16.50;11.70;;;8.00;78.30;;;;;;5010826;28;20034;-81
2022/01/27 03:13:38;;;;;;;15.85;11.32;;;7.90;78.20;;;;;;5003321;28;20057;-81
2022/01/27 03:16:06;;;;;;;15.98;10.68;;;7.90;78.20;;;;;;4985876;28;20033;-80
2022/01/27 03:18:32;;;;;;;15.93;10.80;;;7.90;78.20;;;;;;4987882;28;20034;-81
2022/01/27 03:20:58;;;;;;;15.75;10.60;;;7.90;78.20;;;;;;4997327;28;20061;-81
2022/01/27 03:23:24;;;;;;;16.30;10.85;;;8.00;78.30;;;;;;4973157;28;20053;-81
2022/01/27 03:25:50;;;;;;;15.25;10.38;;;7.90;78.20;;;;;;4998633;28;20038;-80
2022/01/27 03:28:18;;;;;;;15.48;10.60;;;7.90;78.20;;;;;;4985043;28;20485;-81
2022/01/27 03:30:44;;;;;;;14.93;11.10;;;7.90;78.20;;;;;;4999885;28;20037;-81
2022/01/27 03:33:09;;;;;;;14.43;11.20;;;7.90;78.20;;;;;;4998182;28;20060;-82
2022/01/27 03:35:35;;;;;;;17.00;10.93;;;8.00;78.20;;;;;;4995514;28;20037;-81
2022/01/27 03:38:01;;;;;;;17.02;12.05;;;8.00;78.20;;;;;;4983333;28;20061;-81
2022/01/27 03:40:27;;;;;;;15.25;10.07;;;8.00;78.20;;;;;;4992248;28;20018;-80
2022/01/27 03:43:14;;;;;;;16.08;10.85;;;8.00;78.30;;;;;;4989970;28;20216;-81
2022/01/27 03:45:39;;;;;;;14.35;10.60;;;8.00;78.20;;;;;;4991606;28;20072;-83
2022/01/27 03:48:05;;;;;;;14.85;10.95;;;8.00;78.20;;;;;;5010005;28;20427;-81
2022/01/27 03:50:32;;;;;;;15.77;10.93;;;8.00;78.20;;;;;;4991564;28;20226;-82
2022/01/27 03:52:58;;;;;;;14.88;11.02;;;8.00;78.20;;;;;;4984556;28;20030;-80
2022/01/27 03:55:24;;;;;;;14.85;10.98;;;8.00;78.20;;;;;;5013140;28;20029;-80
2022/01/27 03:57:50;;;;;;;14.38;9.52;;;8.00;78.20;;;;;;4991484;28;20037;-80
2022/01/27 04:00:16;;;;;;;14.82;10.68;;;8.00;78.30;;;;;;4985933;28;20483;-80
2022/01/27 04:02:54;;;;;;;14.85;10.63;;;8.00;78.30;;;;;;4973133;28;20423;-80
2022/01/27 04:05:20;;;;;;;16.45;11.55;;;8.00;78.20;;;;;;5014939;28;20088;-80
2022/01/27 04:07:46;;;;;;;14.85;10.55;;;7.90;78.20;;;;;;4973772;28;20436;-84
2022/01/27 04:10:12;;;;;;;15.52;10.35;;;8.00;78.20;;;;;;5002264;28;20501;-81
2022/01/27 04:12:37;;;;;;;16.77;11.65;;;8.00;78.30;;;;;;5012262;28;20042;-82
2022/01/27 04:15:05;;;;;;;15.85;11.48;;;8.00;78.20;;;;;;5009825;28;20053;-81
2022/01/27 04:17:31;;;;;;;15.60;10.98;;;8.00;78.30;;;;;;5010583;28;20034;-80
2022/01/27 04:19:56;;;;;;;14.75;10.82;;;8.00;78.30;;;;;;5015325;28;20502;-80
2022/01/27 04:22:22;;;;;;;16.67;10.90;;;8.00;78.20;;;;;;5018903;28;20104;-80
2022/01/27 04:24:48;;;;;;;15.35;11.15;;;8.00;78.20;;;;;;5014027;28;20498;-80
2022/01/27 04:27:19;;;;;;;15.27;10.98;;;8.00;78.20;;;;;;4997775;28;20034;-80
2022/01/27 04:29:45;;;;;;;15.18;10.43;;;8.00;78.90;;;;;;5019595;28;20069;-82
2022/01/27 04:32:13;;;;;;;15.95;11.07;;;8.00;78.20;;;;;;4981910;28;20044;-82
2022/01/27 04:34:42;;;;;;;15.90;10.73;;;8.00;78.20;;;;;;5016011;28;20034;-79
2022/01/27 04:37:11;;;;;;;14.65;10.80;;;8.00;78.20;;;;;;5005721;28;20130;-80
2022/01/27 04:39:44;;;;;;;14.45;10.77;;;8.00;78.20;;;;;;5003480;28;20076;-80
2022/01/27 04:42:23;;;;;;;15.95;11.18;;;8.00;78.20;;;;;;5010506;28;20417;-81
2022/01/27 04:44:55;;;;;;;15.38;10.38;;;8.00;78.20;;;;;;5021954;28;20036;-83
2022/01/27 04:47:31;;;;;;;15.18;10.48;;;8.00;78.20;;;;;;4991635;28;20053;-80
2022/01/27 04:49:58;;;;;;;14.18;10.25;;;8.00;78.20;;;;;;4970758;28;20125;-80
2022/01/27 04:52:25;;;;;;;15.13;11.05;;;8.00;78.20;;;;;;5016388;28;20076;-81
2022/01/27 04:55:06;;;;;;;16.08;11.15;;;8.00;78.20;;;;;;5023425;28;20080;-80
2022/01/27 04:57:32;;;;;;;13.30;9.48;;;8.00;78.20;;;;;;4997046;28;20514;-80
2022/01/27 04:59:58;;;;;;;16.02;10.73;;;8.00;78.20;;;;;;5004995;28;20026;-81
2022/01/27 05:02:38;;;;;;;15.00;10.23;;;8.00;78.20;;;;;;5020778;28;20073;-81
2022/01/27 05:05:04;;;;;;;15.48;10.43;;;8.00;78.20;;;;;;5001692;28;20463;-81
2022/01/27 05:07:30;;;;;;;13.50;9.70;;;8.00;78.20;;;;;;4997249;28;20086;-80
2022/01/27 05:10:00;;;;;;;14.32;9.98;;;8.00;78.20;;;;;;5015725;28;20033;-80
2022/01/27 05:12:48;;;;;;;14.35;9.95;;;8.00;78.20;;;;;;5014881;28;20037;-82
2022/01/27 05:15:14;;;;;;;15.18;10.52;;;8.00;78.20;;;;;;4988948;28;20057;-80
2022/01/27 05:17:40;;;;;;;14.63;10.68;;;8.00;78.20;;;;;;5012868;28;20390;-81
2022/01/27 05:20:06;;;;;;;13.57;9.70;;;8.00;78.20;;;;;;5000794;28;20036;-81
2022/01/27 05:22:32;;;;;;;14.02;9.80;;;8.00;78.20;;;;;;5015607;28;20025;-80
2022/01/27 05:24:58;;;;;;;13.50;9.45;;;8.00;78.20;;;;;;5016266;28;20036;-80
2022/01/27 05:27:24;;;;;;;14.13;9.73;;;8.00;78.20;;;;;;5023395;28;20502;-79
2022/01/27 05:29:52;;;;;;;14.38;9.63;;;8.10;78.30;;;;;;5000592;28;20064;-80
2022/01/27 05:32:19;;;;;;;13.18;9.18;;;8.00;78.20;;;;;;5012339;28;20041;-80
2022/01/27 05:34:45;;;;;;;13.88;9.23;;;8.00;78.30;;;;;;5020571;28;20040;-81
2022/01/27 05:37:10;;;;;;;12.60;9.52;;;8.00;78.30;;;;;;5015061;28;20018;-80
2022/01/27 05:39:36;;;;;;;14.27;9.65;;;8.10;78.30;;;;;;5011683;28;20065;-80
2022/01/27 05:42:03;;;;;;;13.95;9.75;;;8.10;78.30;;;;;;5007588;28;20096;-80
2022/01/27 05:44:30;;;;;;;14.88;10.60;;;8.10;78.30;;;;;;5011643;28;20034;-80
2022/01/27 05:46:57;;;;;;;14.85;9.95;;;8.00;78.20;;;;;;4999928;28;20033;-80
2022/01/27 05:49:23;;;;;;;15.00;9.75;;;8.00;78.20;;;;;;4995747;28;20038;-81
2022/01/27 05:51:49;;;;;;;14.00;10.13;;;8.10;78.30;;;;;;5023415;28;20085;-80
2022/01/27 05:54:15;;;;;;;13.88;9.95;;;8.10;78.20;;;;;;5011772;28;20042;-80
2022/01/27 05:56:41;;;;;;;13.23;9.68;;;8.10;78.30;;;;;;5015407;28;20084;-80
2022/01/27 05:59:07;;;;;;;14.18;9.48;;;8.10;78.30;;;;;;4992202;28;20049;-80
2022/01/27 06:01:33;;;;;;;13.48;9.15;;;8.10;78.30;;;;;;5001275;28;20049;-82
2022/01/27 06:03:58;;;;;;;13.85;9.07;;;8.10;78.30;;;;;;5011241;28;20092;-80
2022/01/27 06:06:24;;;;;;;12.65;8.75;;;8.10;78.30;;;;;;5010675;28;20440;-82
2022/01/27 06:08:50;;;;;;;14.02;9.25;;;8.10;78.30;;;;;;5000361;28;20022;-81
2022/01/27 06:11:16;;;;;;;13.70;9.55;;;8.10;78.30;;;;;;5009599;28;20466;-81
2022/01/27 06:13:43;;;;;;;13.23;9.15;;;8.10;78.30;;;;;;5001719;28;20049;-79
2022/01/27 06:16:10;;;;;;;11.85;8.30;;;8.10;78.30;;;;;;5004546;28;20033;-78
2022/01/27 06:18:37;;;;;;;12.55;8.85;;;8.10;78.30;;;;;;5027058;28;20030;-80
2022/01/27 06:21:07;;;;;;;13.32;9.25;;;8.10;78.30;;;;;;5028435;28;20029;-80
2022/01/27 06:24:39;;;;;;;13.77;8.75;;;8.10;78.30;;;;;;5005603;28;20077;-80
2022/01/27 06:31:15;;;;;;;12.73;7.82;;;8.10;78.30;;;;;;5031006;28;20052;-79
2022/01/27 06:34:23;;;;;;;14.13;8.90;;;8.10;78.30;;;;;;5024176;28;20072;-79
2022/01/27 06:37:24;;;;;;;12.75;8.43;;;8.10;78.50;;;;;;5025721;28;20048;-78
2022/01/27 06:39:52;;;;;;;11.13;7.90;;;8.10;78.40;;;;;;5015566;28;20112;-80
2022/01/27 06:42:24;;;;;;;11.60;7.93;;;8.10;78.50;;;;;;5012311;28;20045;-78
2022/01/27 06:45:09;;;;;;;12.35;8.60;;;8.10;78.50;;;;;;5012268;28;20044;-79
2022/01/27 06:47:52;;;;;;;13.52;8.32;;;8.10;78.60;;;;;;5034578;28;20063;-79
2022/01/27 06:53:42;;;;;;;11.98;8.15;;;8.10;78.50;;;;;;5040503;28;20472;-81
2022/01/27 06:56:08;;;;;;;10.98;7.32;;;8.10;78.40;;;;;;5016349;28;20112;-82
2022/01/27 06:58:36;;;;;;;11.43;7.85;;;8.10;78.50;;;;;;5009111;28;20033;-78
2022/01/27 07:01:02;;;;;;;11.63;8.02;;;8.10;78.50;;;;;;5016420;28;20017;-82
2022/01/27 07:03:27;;;;;;;11.82;8.05;;;8.10;78.50;;;;;;5025693;28;20037;-81
2022/01/27 07:05:53;;;;;;;13.07;8.32;;;8.10;78.50;;;;;;5023207;28;20040;-80
2022/01/27 07:08:20;;;;;;;11.07;7.93;;;8.10;78.50;;;;;;5023109;28;20065;-79
2022/01/27 07:10:46;;;;;;;11.60;7.32;;;8.20;78.50;;;;;;5004149;28;20041;-80
2022/01/27 07:13:14;;;;;;;10.65;7.28;;;8.10;78.50;;;;;;4997614;28;20037;-79
2022/01/27 07:15:39;;;;;;;11.45;7.30;;;8.20;78.50;;;;;;5014507;28;20387;-81
2022/01/27 07:18:05;;;;;;;10.98;7.05;;;8.20;78.50;;;;;;4997554;28;20190;-80
2022/01/27 07:20:32;;;;;;;10.75;7.82;;;8.20;78.50;;;;;;4994478;28;20062;-81
2022/01/27 07:22:59;;;;;;;12.85;7.47;;;8.20;78.50;;;;;;5026951;28;20096;-80
2022/01/27 07:25:25;;;;;;;12.82;8.00;;;8.20;78.50;;;;;;5008667;28;20025;-79
2022/01/27 07:27:51;;;;;;;10.07;7.15;;;8.20;78.50;;;;;;5001822;28;20114;-79
2022/01/27 07:30:17;;;;;;;10.57;6.90;;;8.20;78.50;;;;;;5010780;28;20521;-79
2022/01/27 07:33:07;;;;;;;11.82;7.40;;;8.20;78.50;;;;;;5000695;28;20516;-80
2022/01/27 07:35:35;;;;;;;10.35;6.90;;;8.20;78.50;;;;;;5033297;28;20469;-79
2022/01/27 07:38:02;;;;;;;12.02;7.32;;;8.20;78.50;;;;;;5006961;28;20123;-79
2022/01/27 07:40:43;;;;;;;10.13;6.85;;;8.20;78.50;;;;;;5021471;28;20075;-79
2022/01/27 07:43:36;;;;;;;9.60;6.60;;;8.20;78.60;;;;;;5008613;28;20060;-80
2022/01/27 07:46:29;;;;;;;11.45;7.15;;;8.20;78.50;;;;;;5025684;28;20032;-80
2022/01/27 07:49:20;;;;;;;9.88;6.78;;;8.30;78.60;;;;;;5023525;28;20068;-80
2022/01/27 07:52:41;;;;;;;11.10;7.18;;;8.20;78.60;;;;;;4970608;28;20501;-79
2022/01/27 07:55:19;;;;;;;10.15;6.68;;;8.30;78.70;;;;;;5019087;28;20032;-80
2022/01/27 07:58:40;;;;;;;10.10;6.80;;;8.30;78.50;;;;;;5025974;28;20649;-80
2022/01/27 08:09:36;;;;;;;10.98;6.57;;;8.30;78.70;;;;;;5040298;28;20116;-79
2022/01/27 08:12:07;;;;;;;10.13;6.07;;;8.30;78.70;;;;;;4999517;28;20049;-81
2022/01/27 08:15:08;;;;;;;8.82;6.07;;;8.30;78.70;;;;;;5005326;28;20068;-83
2022/01/27 08:17:37;;;;;;;9.50;6.32;;;8.30;78.90;;;;;;4983698;28;20076;-79
2022/01/27 08:20:47;;;;;;;10.18;6.57;;;8.30;78.70;;;;;;5024914;28;20061;-80
2022/01/27 08:23:53;;;;;;;8.48;5.75;;;8.30;78.90;;;;;;5023748;28;20566;-78
2022/01/27 08:26:30;;;;;;;9.85;6.80;;;8.30;78.70;;;;;;5007866;28;20026;-78
2022/01/27 08:29:08;;;;;;;10.43;6.72;;;8.30;78.70;;;;;;4983534;28;20030;-79
2022/01/27 08:31:43;;;;;;;8.68;5.95;;;8.40;78.80;;;;;;5013532;28;20088;-77
2022/01/27 08:34:14;;;;;;;9.75;6.45;;;8.40;78.80;;;;;;5011421;28;20041;-80
2022/01/27 08:36:42;;;;;;;10.50;6.47;;;8.40;78.70;;;;;;5013277;28;20045;-78
2022/01/27 08:39:08;;;;;;;10.77;6.55;;;8.40;78.70;;;;;;5029480;28;20494;-79
2022/01/27 08:41:34;;;;;;;10.20;6.05;;;8.40;78.70;;;;;;5013622;28;20126;-78
2022/01/27 08:43:59;;;;;;;10.18;6.88;;;8.40;78.70;;;;;;5013788;28;20068;-78
2022/01/27 08:46:25;;;;;;;9.82;6.70;;;8.40;78.70;;;;;;4980422;28;20026;-78
2022/01/27 08:48:51;;;;;;;11.05;6.85;;;8.50;78.80;;;;;;4976195;28;20053;-79
2022/01/27 08:51:21;;;;;;;10.20;6.63;;;8.50;78.80;;;;;;5014623;28;20486;-78
2022/01/27 08:53:47;;;;;;;9.45;6.25;;;8.50;78.80;;;;;;4977005;28;20064;-78
2022/01/27 08:56:16;;;;;;;10.00;6.60;;;8.50;78.70;;;;;;5007884;28;20052;-79
2022/01/27 08:58:42;;;;;;;8.43;6.30;;;8.50;78.70;;;;;;5015597;28;20084;-79
2022/01/27 09:01:08;;;;;;;9.25;6.53;;;8.50;78.70;;;;;;4995726;28;20026;-82
2022/01/27 09:03:35;;;;;;;9.60;5.85;;;8.50;78.70;;;;;;4972569;28;20042;-79
2022/01/27 09:06:00;;;;;;;10.25;6.45;;;8.50;78.70;;;;;;4990874;28;20032;-78
2022/01/27 09:08:27;;;;;;;9.70;6.35;;;8.50;78.80;;;;;;5013625;28;20421;-79
2022/01/27 09:10:54;;;;;;;9.88;6.05;;;8.60;78.80;;;;;;5022630;28;20033;-78
2022/01/27 09:13:19;;;;;;;8.57;6.07;;;8.60;78.80;;;;;;5012363;28;20120;-78
2022/01/27 09:15:49;;;;;;;8.93;6.47;;;8.60;78.70;;;;;;5013645;28;20129;-77
2022/01/27 09:18:15;;;;;;;9.35;6.07;;;8.60;78.80;;;;;;5006983;28;20040;-79
2022/01/27 09:20:42;;;;;;;8.95;6.18;;;8.60;78.70;;;;;;5013746;28;20067;-78
2022/01/27 09:23:13;;;;;;;9.82;6.45;;;8.60;78.70;;;;;;5023548;28;20043;-78
2022/01/27 09:25:46;;;;;;;8.95;6.25;;;8.60;78.80;;;;;;5014079;28;20041;-78
2022/01/27 09:28:14;;;;;;;8.02;6.22;;;8.60;78.70;;;;;;5011435;28;20038;-79
2022/01/27 09:30:45;;;;;;;9.15;5.82;;;8.60;78.80;;;;;;5010759;28;20029;-78
2022/01/27 09:33:11;;;;;;;8.95;6.07;;;8.70;78.80;;;;;;5020894;28;20034;-80
2022/01/27 09:35:40;;;;;;;10.38;6.30;;;8.70;78.80;;;;;;4998173;28;20022;-78
2022/01/27 09:38:06;;;;;;;8.48;5.50;;;8.70;78.80;;;;;;5014264;28;20030;-78
2022/01/27 09:40:34;;;;;;;7.82;5.65;;;8.70;78.80;;;;;;5011210;28;20351;-78
2022/01/27 09:43:02;;;;;;;8.52;5.97;;;8.70;78.80;;;;;;5011507;28;20467;-78
2022/01/27 09:45:29;;;;;;;9.27;5.80;;;8.70;78.90;;;;;;5004428;28;20029;-78
2022/01/27 09:48:02;;;;;;;8.45;6.07;;;8.70;78.80;;;;;;5000062;28;20030;-79
2022/01/27 09:53:09;;;;;;;8.13;5.72;;;8.70;78.80;;;;;;5002409;28;20068;-80
2022/01/27 09:55:35;;;;;;;8.85;5.85;;;8.80;78.90;;;;;;5003185;28;20490;-78
2022/01/27 09:58:01;;;;;;;7.78;5.35;;;8.70;78.80;;;;;;4990712;28;20106;-78
2022/01/27 10:00:28;;;;;;;8.05;5.78;;;8.70;78.80;;;;;;5013501;28;20089;-78
2022/01/27 10:03:11;;;;;;;8.13;5.43;;;8.80;78.90;;;;;;5011409;28;20037;-79
2022/01/27 10:05:38;;;;;;;7.95;5.40;;;8.80;78.90;;;;;;5014026;28;20076;-78
2022/01/27 10:08:13;;;;;;;8.07;5.20;;;8.70;78.80;;;;;;5009307;28;20451;-78
2022/01/27 10:10:48;;;;;;;8.07;5.38;;;8.80;78.90;;;;;;5003481;28;20030;-82
2022/01/27 10:13:32;;;;;;;7.00;5.28;;;8.80;78.90;;;;;;5006674;28;20036;-80
2022/01/27 10:15:58;;;;;;;7.38;5.05;;;8.80;78.90;;;;;;5021212;28;20054;-79
2022/01/27 10:18:26;;;;;;;7.90;5.55;;;8.80;78.80;;;;;;5002936;28;20030;-78
2022/01/27 10:21:07;;;;;;;7.45;5.13;;;8.80;78.90;;;;;;4990479;28;20120;-78
2022/01/27 10:23:35;;;;;;;7.78;5.05;;;8.80;78.90;;;;;;5005730;28;20040;-78
2022/01/27 10:26:12;;;;;;;7.57;5.35;;;8.80;78.90;;;;;;4994719;28;20455;-79
2022/01/27 10:29:06;;;;;;;7.40;5.40;;;8.90;78.90;;;;;;5014491;28;20036;-78
2022/01/27 10:31:46;;;;;;;7.57;5.20;;;8.90;78.90;;;;;;5002762;28;20060;-78
2022/01/27 10:34:15;;;;;;;7.45;4.78;;;8.80;78.80;;;;;;4982500;28;20100;-79
2022/01/27 10:36:44;;;;;;;6.90;4.85;;;8.90;78.90;;;;;;4993572;28;20034;-79
2022/01/27 10:39:20;;;;;;;7.38;4.95;;;8.90;78.90;;;;;;4986261;28;20029;-79
2022/01/27 10:42:07;;;;;;;6.63;4.85;;;8.90;78.90;;;;;;5028298;28;20029;-79
2022/01/27 10:44:43;;;;;;;6.65;4.82;;;8.90;78.90;;;;;;5003948;28;20056;-78
2022/01/27 10:47:21;;;;;;;6.38;4.82;;;8.90;78.90;;;;;;4993732;28;20390;-76
2022/01/27 10:49:54;;;;;;;6.90;5.10;;;8.90;78.90;;;;;;4992786;28;20030;-79
2022/01/27 10:52:33;;;;;;;6.65;4.68;;;8.90;78.90;;;;;;5003043;28;20042;-78
2022/01/27 10:55:23;;;;;;;7.05;4.60;;;9.00;79.00;;;;;;5005817;28;20037;-78
2022/01/27 10:57:50;;;;;;;7.10;5.07;;;9.00;79.00;;;;;;4984370;28;20456;-78
2022/01/27 11:00:22;;;;;;;6.80;4.38;;;9.00;78.90;;;;;;4979262;28;20406;-83
2022/01/27 11:03:04;;;;;;;6.63;4.38;;;9.00;79.00;;;;;;4973265;28;20033;-80
2022/01/27 11:05:45;;;;;;;6.63;4.63;;;9.00;79.00;;;;;;4985146;28;20049;-81
2022/01/27 11:08:53;;;;;;;6.43;4.63;;;9.00;79.00;;;;;;5005422;28;20533;-80
2022/01/27 11:11:22;;;;;;;7.15;4.38;;;9.00;79.00;;;;;;4997598;28;20027;-85
2022/01/27 11:13:50;;;;;;;6.80;4.38;;;9.00;78.90;;;;;;4991047;28;20021;-82
2022/01/27 11:16:24;;;;;;;6.20;4.20;;;9.00;78.90;;;;;;5006862;28;20054;-83
2022/01/27 11:18:50;;;;;;;6.93;5.05;;;9.00;78.90;;;;;;5012593;28;20441;-81
2022/01/27 11:21:55;;;;;;;5.18;3.60;;;9.10;79.00;;;;;;4980297;28;20026;-81
2022/01/27 11:24:24;;;;;;;5.53;4.00;;;9.10;79.00;;;;;;5017123;28;20124;-82
2022/01/27 11:27:05;;;;;;;5.22;3.75;;;9.10;78.90;;;;;;5016105;28;20125;-83
2022/01/27 11:29:46;;;;;;;5.90;4.18;;;9.10;78.90;;;;;;5011516;28;20053;-81
2022/01/27 11:32:26;;;;;;;7.20;3.90;;;9.10;79.60;;;;;;5025611;28;20034;-82
2022/01/27 11:34:59;;;;;;;6.22;4.38;;;9.10;79.00;;;;;;5017268;28;20105;-81
2022/01/27 11:37:36;;;;;;;6.20;4.30;;;9.10;79.00;;;;;;5016047;28;20057;-80
2022/01/27 11:40:06;;;;;;;7.38;4.40;;;9.20;79.00;;;;;;5004498;28;20028;-83
2022/01/27 11:42:35;;;;;;;5.90;4.05;;;9.20;79.00;;;;;;5018769;28;20042;-82
2022/01/27 11:45:23;;;;;;;6.25;4.30;;;9.20;79.00;;;;;;5011714;28;20107;-81
2022/01/27 11:47:49;;;;;;;7.00;4.20;;;9.20;79.20;;;;;;5012711;28;20029;-83
2022/01/27 11:51:11;;;;;;;6.05;4.20;;;9.20;79.00;;;;;;5015825;28;20038;-82
2022/01/27 11:53:14;;;;;;;5.30;4.10;;;9.20;79.10;;;;;;5014602;28;20033;-83
2022/01/27 11:55:44;;;;;;;5.82;4.22;;;9.30;79.00;;;;;;5005704;28;20679;-82
2022/01/27 11:58:21;;;;;;;6.80;4.57;;;9.30;79.00;;;;;;5010460;28;20049;-81
2022/01/27 12:01:11;;;;;;;7.43;4.75;;;9.30;79.10;;;;;;5014004;28;20188;-81
2022/01/27 12:03:39;;;;;;;5.95;4.35;;;9.30;79.20;;;;;;5022482;28;20095;-83
2022/01/27 12:06:24;;;;;;;6.95;4.30;;;9.30;79.00;;;;;;5028654;28;20035;-84
2022/01/27 12:08:50;;;;;;;6.85;4.47;;;9.30;79.10;;;;;;5007952;28;20570;-81
2022/01/27 12:11:48;;;;;;;6.90;4.00;;;9.30;79.00;;;;;;5010127;28;20033;-86
2022/01/27 12:14:21;;;;;;;5.95;4.68;;;9.30;79.20;;;;;;5028373;28;20061;-87
2022/01/27 12:17:09;;;;;;;6.55;4.60;;;9.30;79.00;;;;;;5006649;28;20155;-86
2022/01/27 12:20:01;;;;;;;7.10;4.53;;;9.40;79.20;;;;;;5016969;28;20034;-87
2022/01/27 12:22:39;;;;;;;6.35;4.22;;;9.40;79.20;;;;;;5014601;28;20025;-87
2022/01/27 12:25:06;;;;;;;6.80;4.50;;;9.40;79.10;;;;;;5024109;28;20095;-86
2022/01/27 12:27:32;;;;;;;7.00;4.82;;;9.40;79.10;;;;;;5023343;28;20037;-87
2022/01/27 12:29:59;;;;;;;7.03;4.68;;;9.40;79.10;;;;;;5014936;28;20033;-85
2022/01/27 12:32:30;;;;;;;6.50;4.90;;;9.40;79.10;;;;;;5007752;28;20041;-86
2022/01/27 12:35:03;;;;;;;6.35;4.55;;;9.50;79.10;;;;;;5013382;28;20052;-85
2022/01/27 12:37:51;;;;;;;6.97;4.72;;;9.50;79.10;;;;;;5021388;28;20081;-87
2022/01/27 12:40:26;;;;;;;6.78;4.53;;;9.50;79.20;;;;;;5022053;28;20063;-85
2022/01/27 12:42:59;;;;;;;6.97;5.07;;;9.50;79.00;;;;;;5013893;28;20075;-86
2022/01/27 12:45:30;;;;;;;6.32;4.15;;;9.50;79.00;;;;;;5016330;28;20033;-87
2022/01/27 12:48:03;;;;;;;6.97;4.55;;;9.50;79.00;;;;;;5025380;28;20029;-85
2022/01/27 12:50:29;;;;;;;7.80;4.32;;;9.60;79.10;;;;;;5014897;28;20030;-85
2022/01/27 12:52:58;;;;;;;6.50;4.75;;;9.60;79.00;;;;;;5009268;28;20069;-86
2022/01/27 12:55:34;;;;;;;6.43;4.30;;;9.60;79.00;;;;;;5014220;28;20026;-87
2022/01/27 12:58:05;;;;;;;6.50;4.70;;;9.60;79.10;;;;;;5022194;28;20048;-86
2022/01/27 13:00:43;;;;;;;7.10;4.95;;;9.60;79.00;;;;;;5021845;28;20038;-86
2022/01/27 13:03:09;;;;;;;7.78;5.15;;;9.60;79.10;;;;;;5012030;28;20435;-86
2022/01/27 13:05:48;;;;;;;6.70;4.80;;;9.60;79.00;;;;;;5015295;28;20033;-86
2022/01/27 13:08:28;;;;;;;7.13;4.88;;;9.70;79.10;;;;;;5021734;28;20030;-85
2022/01/27 13:10:58;;;;;;;6.55;4.80;;;9.70;79.10;;;;;;5022552;28;20026;-86
2022/01/27 13:13:28;;;;;;;6.50;4.63;;;9.70;79.00;;;;;;5008803;28;20029;-88
2022/01/27 13:16:01;;;;;;;6.50;4.53;;;9.70;79.10;;;;;;5021104;28;20037;-86
2022/01/27 13:18:33;;;;;;;7.10;4.47;;;9.70;79.10;;;;;;5021698;28;20026;-86
2022/01/27 13:21:00;;;;;;;8.07;4.88;;;9.70;79.00;;;;;;5008195;28;20429;-86
2022/01/27 13:26:03;;;;;;;6.50;4.50;;;9.70;79.00;;;;;;5007168;28;20045;-86
2022/01/27 13:28:34;;;;;;;7.13;5.25;;;9.80;79.10;;;;;;5027099;28;20026;-84
2022/01/27 13:31:09;;;;;;;6.70;4.68;;;9.80;79.00;;;;;;5021825;28;20104;-85
2022/01/27 13:33:46;;;;;;;6.70;5.03;;;9.80;79.10;;;;;;5020230;28;20120;-85
2022/01/27 13:36:17;;;;;;;7.28;5.03;;;9.80;79.10;;;;;;5005154;28;20037;-84
2022/01/27 13:41:36;;;;;;;6.47;4.60;;;9.80;79.10;;;;;;5020727;28;20030;-84
2022/01/27 13:44:14;;;;;;;6.38;4.95;;;9.90;79.00;;;;;;5013065;28;20458;-84
2022/01/27 13:46:49;;;;;;;6.68;4.47;;;9.90;79.10;;;;;;4999450;28;20034;-85
2022/01/27 13:49:28;;;;;;;6.10;4.70;;;9.90;79.10;;;;;;5031037;28;20052;-85
2022/01/27 13:52:00;;;;;;;6.20;4.68;;;9.90;79.00;;;;;;5012678;28;20030;-84
2022/01/27 13:54:36;;;;;;;6.50;4.45;;;9.90;79.10;;;;;;5022684;28;20025;-85
2022/01/27 13:57:08;;;;;;;5.55;4.13;;;9.90;79.00;;;;;;5023706;28;20033;-84
2022/01/27 14:00:08;;;;;;;5.75;4.00;;;10.00;79.10;;;;;;5012068;28;20113;-84
2022/01/27 14:02:47;;;;;;;5.95;4.28;;;10.00;79.20;;;;;;5015647;28;20466;-84
2022/01/27 14:05:17;;;;;;;6.38;3.97;;;10.00;79.00;;;;;;5016305;28;20035;-85
2022/01/27 14:07:53;;;;;;;5.70;3.92;;;10.10;79.10;;;;;;5012007;28;20057;-85
2022/01/27 14:10:23;;;;;;;7.57;3.92;;;10.00;79.10;;;;;;5004508;28;20037;-84